sensor_id;sensor_type;location;lat;lon;timestamp;pressure;altitude;pressure_sealevel;temperature;humidity
55610;BME280;41486;52.502;13.486;2023-02-22T00:00:44;101160.63;;;8.19;87.45
55610;BME280;41486;52.502;13.486;2023-02-22T00:03:17;101162.16;;;8.38;86.61
55610;BME280;41486;52.502;13.486;2023-02-22T00:05:53;101167.28;;;8.25;88.89
55610;BME280;41486;52.502;13.486;2023-02-22T00:08:25;101166.94;;;8.31;86.63
55610;BME280;41486;52.502;13.486;2023-02-22T00:10:56;101158.13;;;8.32;87.53
55610;BME280;41486;52.502;13.486;2023-02-22T00:13:26;101161.97;;;8.27;88.30
55610;BME280;41486;52.502;13.486;2023-02-22T00:15:55;101158.41;;;8.28;87.96
55610;BME280;41486;52.502;13.486;2023-02-22T00:18:23;101151.06;;;8.18;87.16
55610;BME280;41486;52.502;13.486;2023-02-22T00:20:54;101148.94;;;8.25;88.70
55610;BME280;41486;52.502;13.486;2023-02-22T00:23:26;101159.06;;;8.31;87.19
55610;BME280;41486;52.502;13.486;2023-02-22T00:25:56;101150.69;;;8.25;89.15
55610;BME280;41486;52.502;13.486;2023-02-22T00:28:26;101148.25;;;8.21;88.66
55610;BME280;41486;52.502;13.486;2023-02-22T00:30:56;101147.31;;;8.23;89.28
55610;BME280;41486;52.502;13.486;2023-02-22T00:33:25;101139.25;;;8.11;89.19
55610;BME280;41486;52.502;13.486;2023-02-22T00:35:53;101140.28;;;8.09;89.43
55610;BME280;41486;52.502;13.486;2023-02-22T00:38:21;101143.88;;;8.22;89.47
55610;BME280;41486;52.502;13.486;2023-02-22T00:40:49;101144.63;;;8.24;89.95
55610;BME280;41486;52.502;13.486;2023-02-22T00:43:17;101149.41;;;8.32;89.52
55610;BME280;41486;52.502;13.486;2023-02-22T00:45:48;101148.25;;;8.21;88.35
55610;BME280;41486;52.502;13.486;2023-02-22T00:48:16;101141.91;;;8.26;90.41
55610;BME280;41486;52.502;13.486;2023-02-22T00:50:45;101151.19;;;8.31;89.97
55610;BME280;41486;52.502;13.486;2023-02-22T00:53:15;101143.31;;;8.17;89.43
55610;BME280;41486;52.502;13.486;2023-02-22T00:55:43;101143.69;;;8.25;90.89
55610;BME280;41486;52.502;13.486;2023-02-22T00:58:11;101141.50;;;8.17;89.42
55610;BME280;41486;52.502;13.486;2023-02-22T01:00:40;101135.63;;;8.28;89.40
55610;BME280;41486;52.502;13.486;2023-02-22T01:03:12;101149.38;;;8.17;91.47
55610;BME280;41486;52.502;13.486;2023-02-22T01:05:41;101148.09;;;8.25;91.70
55610;BME280;41486;52.502;13.486;2023-02-22T01:08:12;101140.34;;;8.37;90.11
55610;BME280;41486;52.502;13.486;2023-02-22T01:10:41;101142.84;;;8.25;89.27
55610;BME280;41486;52.502;13.486;2023-02-22T01:13:10;101146.69;;;7.72;92.08
55610;BME280;41486;52.502;13.486;2023-02-22T01:15:40;101139.50;;;7.76;92.64
55610;BME280;41486;52.502;13.486;2023-02-22T01:18:12;101143.66;;;7.64;93.50
55610;BME280;41486;52.502;13.486;2023-02-22T01:20:43;101144.84;;;7.42;95.10
55610;BME280;41486;52.502;13.486;2023-02-22T01:23:14;101147.88;;;7.35;96.69
55610;BME280;41486;52.502;13.486;2023-02-22T01:25:43;101141.38;;;7.42;96.57
55610;BME280;41486;52.502;13.486;2023-02-22T01:28:13;101144.94;;;7.41;96.26
55610;BME280;41486;52.502;13.486;2023-02-22T01:30:41;101136.91;;;7.44;96.32
55610;BME280;41486;52.502;13.486;2023-02-22T01:33:09;101142.41;;;8.02;92.97
55610;BME280;41486;52.502;13.486;2023-02-22T01:35:41;101142.56;;;7.52;96.07
55610;BME280;41486;52.502;13.486;2023-02-22T01:38:12;101137.41;;;7.35;98.88
55610;BME280;41486;52.502;13.486;2023-02-22T01:40:42;101133.94;;;7.34;99.19
55610;BME280;41486;52.502;13.486;2023-02-22T01:43:19;101134.53;;;7.39;99.83
55610;BME280;41486;52.502;13.486;2023-02-22T01:45:59;101128.78;;;7.17;100.00
55610;BME280;41486;52.502;13.486;2023-02-22T01:48:32;101122.63;;;7.18;100.00
55610;BME280;41486;52.502;13.486;2023-02-22T01:51:03;101132.94;;;7.21;99.88
55610;BME280;41486;52.502;13.486;2023-02-22T01:53:39;101129.94;;;6.95;100.00
55610;BME280;41486;52.502;13.486;2023-02-22T01:56:09;101126.13;;;6.85;100.00
55610;BME280;41486;52.502;13.486;2023-02-22T01:58:41;101129.31;;;6.74;100.00
55610;BME280;41486;52.502;13.486;2023-02-22T02:01:10;101130.31;;;6.71;100.00
55610;BME280;41486;52.502;13.486;2023-02-22T02:03:39;101119.91;;;6.70;100.00
55610;BME280;41486;52.502;13.486;2023-02-22T02:06:13;101115.22;;;6.43;100.00
55610;BME280;41486;52.502;13.486;2023-02-22T02:08:48;101110.81;;;6.43;100.00
55610;BME280;41486;52.502;13.486;2023-02-22T02:11:23;101117.38;;;6.52;100.00
55610;BME280;41486;52.502;13.486;2023-02-22T02:13:54;101114.06;;;6.49;100.00
55610;BME280;41486;52.502;13.486;2023-02-22T02:16:24;101117.34;;;6.86;100.00
55610;BME280;41486;52.502;13.486;2023-02-22T02:18:53;101114.88;;;6.67;100.00
55610;BME280;41486;52.502;13.486;2023-02-22T02:21:38;101116.91;;;6.77;100.00
55610;BME280;41486;52.502;13.486;2023-02-22T02:27:11;101125.25;;;6.51;100.00
55610;BME280;41486;52.502;13.486;2023-02-22T02:30:12;101116.50;;;6.34;100.00
55610;BME280;41486;52.502;13.486;2023-02-22T02:32:54;101109.84;;;6.28;100.00
55610;BME280;41486;52.502;13.486;2023-02-22T02:35:30;101111.69;;;6.26;100.00
55610;BME280;41486;52.502;13.486;2023-02-22T02:38:05;101108.44;;;6.21;100.00
55610;BME280;41486;52.502;13.486;2023-02-22T02:40:40;101113.06;;;6.16;100.00
55610;BME280;41486;52.502;13.486;2023-02-22T02:43:16;101115.41;;;6.05;100.00
55610;BME280;41486;52.502;13.486;2023-02-22T02:45:53;101109.00;;;6.10;100.00
55610;BME280;41486;52.502;13.486;2023-02-22T02:48:25;101108.06;;;6.11;100.00
55610;BME280;41486;52.502;13.486;2023-02-22T02:50:57;101108.53;;;6.37;100.00
55610;BME280;41486;52.502;13.486;2023-02-22T02:53:33;101113.66;;;6.39;100.00
55610;BME280;41486;52.502;13.486;2023-02-22T02:56:02;101106.38;;;6.45;100.00
55610;BME280;41486;52.502;13.486;2023-02-22T02:58:30;101109.31;;;6.39;100.00
55610;BME280;41486;52.502;13.486;2023-02-22T03:01:00;101106.09;;;6.17;100.00
55610;BME280;41486;52.502;13.486;2023-02-22T03:03:45;101117.84;;;6.08;100.00
55610;BME280;41486;52.502;13.486;2023-02-22T03:06:33;101116.50;;;6.34;100.00
55610;BME280;41486;52.502;13.486;2023-02-22T03:09:12;101115.72;;;6.50;100.00
55610;BME280;41486;52.502;13.486;2023-02-22T03:11:52;101104.09;;;6.04;100.00
55610;BME280;41486;52.502;13.486;2023-02-22T03:14:35;101100.38;;;5.91;100.00
55610;BME280;41486;52.502;13.486;2023-02-22T03:17:14;101099.50;;;5.90;100.00
55610;BME280;41486;52.502;13.486;2023-02-22T03:19:50;101103.06;;;6.07;100.00
55610;BME280;41486;52.502;13.486;2023-02-22T03:22:23;101101.34;;;6.25;100.00
55610;BME280;41486;52.502;13.486;2023-02-22T03:24:56;101101.97;;;5.93;100.00
55610;BME280;41486;52.502;13.486;2023-02-22T03:27:33;101107.25;;;5.74;100.00
55610;BME280;41486;52.502;13.486;2023-02-22T03:30:10;101098.94;;;6.03;100.00
55610;BME280;41486;52.502;13.486;2023-02-22T03:32:43;101097.81;;;5.72;100.00
55610;BME280;41486;52.502;13.486;2023-02-22T03:35:18;101103.44;;;5.81;100.00
55610;BME280;41486;52.502;13.486;2023-02-22T03:37:52;101099.69;;;5.87;100.00
55610;BME280;41486;52.502;13.486;2023-02-22T03:40:26;101095.22;;;5.72;100.00
55610;BME280;41486;52.502;13.486;2023-02-22T03:42:56;101107.06;;;5.96;100.00
55610;BME280;41486;52.502;13.486;2023-02-22T03:45:28;101098.16;;;6.00;100.00
55610;BME280;41486;52.502;13.486;2023-02-22T03:48:02;101105.69;;;6.07;100.00
55610;BME280;41486;52.502;13.486;2023-02-22T03:50:36;101108.69;;;5.99;100.00
55610;BME280;41486;52.502;13.486;2023-02-22T03:53:06;101109.66;;;5.79;100.00
55610;BME280;41486;52.502;13.486;2023-02-22T03:55:37;101109.00;;;5.74;100.00
55610;BME280;41486;52.502;13.486;2023-02-22T03:58:08;101105.66;;;5.72;100.00
55610;BME280;41486;52.502;13.486;2023-02-22T04:00:38;101110.72;;;5.92;100.00
55610;BME280;41486;52.502;13.486;2023-02-22T04:03:10;101113.88;;;5.81;100.00
55610;BME280;41486;52.502;13.486;2023-02-22T04:05:40;101111.63;;;5.74;100.00
55610;BME280;41486;52.502;13.486;2023-02-22T04:08:08;101115.56;;;5.82;100.00
55610;BME280;41486;52.502;13.486;2023-02-22T04:10:36;101116.47;;;6.00;100.00
55610;BME280;41486;52.502;13.486;2023-02-22T04:13:04;101119.47;;;5.91;100.00
55610;BME280;41486;52.502;13.486;2023-02-22T04:15:36;101122.31;;;5.87;100.00
55610;BME280;41486;52.502;13.486;2023-02-22T04:18:07;101118.44;;;5.95;100.00
55610;BME280;41486;52.502;13.486;2023-02-22T04:20:35;101108.56;;;5.83;100.00
55610;BME280;41486;52.502;13.486;2023-02-22T04:23:16;101114.19;;;5.75;100.00
55610;BME280;41486;52.502;13.486;2023-02-22T04:25:44;101107.47;;;5.69;100.00
55610;BME280;41486;52.502;13.486;2023-02-22T04:28:15;101111.78;;;5.71;100.00
55610;BME280;41486;52.502;13.486;2023-02-22T04:30:49;101108.25;;;5.72;100.00
55610;BME280;41486;52.502;13.486;2023-02-22T04:33:18;101111.63;;;5.74;100.00
55610;BME280;41486;52.502;13.486;2023-02-22T04:35:46;101109.22;;;5.69;100.00
55610;BME280;41486;52.502;13.486;2023-02-22T04:38:15;101110.66;;;5.57;100.00
55610;BME280;41486;52.502;13.486;2023-02-22T04:40:44;101115.19;;;5.53;100.00
55610;BME280;41486;52.502;13.486;2023-02-22T04:43:12;101107.56;;;5.49;100.00
55610;BME280;41486;52.502;13.486;2023-02-22T04:45:41;101104.06;;;5.50;100.00
55610;BME280;41486;52.502;13.486;2023-02-22T04:48:09;101111.84;;;5.69;100.00
55610;BME280;41486;52.502;13.486;2023-02-22T04:50:37;101098.28;;;5.80;100.00
55610;BME280;41486;52.502;13.486;2023-02-22T04:53:06;101099.78;;;5.66;100.00
55610;BME280;41486;52.502;13.486;2023-02-22T04:55:37;101105.69;;;5.52;100.00
55610;BME280;41486;52.502;13.486;2023-02-22T04:58:05;101099.41;;;5.57;100.00
55610;BME280;41486;52.502;13.486;2023-02-22T05:00:36;101104.91;;;5.50;100.00
55610;BME280;41486;52.502;13.486;2023-02-22T05:03:05;101107.16;;;5.58;100.00
55610;BME280;41486;52.502;13.486;2023-02-22T05:05:33;101102.91;;;5.56;100.00
55610;BME280;41486;52.502;13.486;2023-02-22T05:08:00;101104.63;;;5.57;100.00
55610;BME280;41486;52.502;13.486;2023-02-22T05:10:28;101110.84;;;5.54;100.00
55610;BME280;41486;52.502;13.486;2023-02-22T05:12:58;101105.34;;;5.41;100.00
55610;BME280;41486;52.502;13.486;2023-02-22T05:15:26;101096.59;;;5.42;100.00
55610;BME280;41486;52.502;13.486;2023-02-22T05:17:53;101093.78;;;5.47;100.00
55610;BME280;41486;52.502;13.486;2023-02-22T05:20:24;101086.13;;;5.61;100.00
55610;BME280;41486;52.502;13.486;2023-02-22T05:22:53;101089.47;;;5.46;100.00
55610;BME280;41486;52.502;13.486;2023-02-22T05:25:22;101088.50;;;5.29;100.00
55610;BME280;41486;52.502;13.486;2023-02-22T05:27:50;101094.78;;;5.25;100.00
55610;BME280;41486;52.502;13.486;2023-02-22T05:30:23;101099.44;;;5.18;100.00
55610;BME280;41486;52.502;13.486;2023-02-22T05:32:52;101096.63;;;5.23;100.00
55610;BME280;41486;52.502;13.486;2023-02-22T05:35:21;101103.06;;;5.16;100.00
55610;BME280;41486;52.502;13.486;2023-02-22T05:37:49;101095.97;;;5.18;100.00
55610;BME280;41486;52.502;13.486;2023-02-22T05:40:18;101091.66;;;5.17;100.00
55610;BME280;41486;52.502;13.486;2023-02-22T05:42:47;101089.56;;;5.25;100.00
55610;BME280;41486;52.502;13.486;2023-02-22T05:45:17;101094.56;;;5.30;100.00
55610;BME280;41486;52.502;13.486;2023-02-22T05:47:46;101097.25;;;5.28;100.00
55610;BME280;41486;52.502;13.486;2023-02-22T05:50:16;101112.41;;;5.39;100.00
55610;BME280;41486;52.502;13.486;2023-02-22T05:52:45;101104.03;;;5.32;100.00
55610;BME280;41486;52.502;13.486;2023-02-22T05:55:15;101104.44;;;5.42;100.00
55610;BME280;41486;52.502;13.486;2023-02-22T05:57:43;101110.69;;;5.38;100.00
55610;BME280;41486;52.502;13.486;2023-02-22T06:00:15;101112.56;;;5.36;100.00
55610;BME280;41486;52.502;13.486;2023-02-22T06:02:45;101111.56;;;5.39;100.00
55610;BME280;41486;52.502;13.486;2023-02-22T06:05:13;101114.38;;;5.34;100.00
55610;BME280;41486;52.502;13.486;2023-02-22T06:07:41;101108.78;;;5.42;100.00
55610;BME280;41486;52.502;13.486;2023-02-22T06:10:09;101110.28;;;5.47;100.00
55610;BME280;41486;52.502;13.486;2023-02-22T06:12:37;101116.66;;;5.59;100.00
55610;BME280;41486;52.502;13.486;2023-02-22T06:15:05;101113.22;;;5.59;100.00
55610;BME280;41486;52.502;13.486;2023-02-22T06:17:33;101114.34;;;5.53;100.00
55610;BME280;41486;52.502;13.486;2023-02-22T06:20:03;101120.59;;;5.50;100.00
55610;BME280;41486;52.502;13.486;2023-02-22T06:22:31;101125.59;;;5.55;100.00
55610;BME280;41486;52.502;13.486;2023-02-22T06:25:01;101126.91;;;5.64;100.00
55610;BME280;41486;52.502;13.486;2023-02-22T06:27:29;101128.72;;;5.62;100.00
55610;BME280;41486;52.502;13.486;2023-02-22T06:29:58;101129.72;;;5.59;100.00
55610;BME280;41486;52.502;13.486;2023-02-22T06:32:26;101133.03;;;5.63;100.00
55610;BME280;41486;52.502;13.486;2023-02-22T06:34:54;101132.25;;;5.80;100.00
55610;BME280;41486;52.502;13.486;2023-02-22T06:37:23;101122.63;;;5.80;100.00
55610;BME280;41486;52.502;13.486;2023-02-22T06:39:51;101134.78;;;5.81;100.00
55610;BME280;41486;52.502;13.486;2023-02-22T06:42:19;101142.16;;;5.91;100.00
55610;BME280;41486;52.502;13.486;2023-02-22T06:44:47;101149.56;;;5.81;100.00
55610;BME280;41486;52.502;13.486;2023-02-22T06:47:17;101145.09;;;5.84;100.00
55610;BME280;41486;52.502;13.486;2023-02-22T06:49:51;101142.38;;;5.86;100.00
55610;BME280;41486;52.502;13.486;2023-02-22T06:52:19;101147.00;;;5.98;100.00
55610;BME280;41486;52.502;13.486;2023-02-22T06:54:50;101140.38;;;5.91;100.00
55610;BME280;41486;52.502;13.486;2023-02-22T06:57:18;101151.63;;;5.93;100.00
55610;BME280;41486;52.502;13.486;2023-02-22T06:59:46;101142.84;;;5.94;100.00
55610;BME280;41486;52.502;13.486;2023-02-22T07:02:14;101148.13;;;6.12;100.00
55610;BME280;41486;52.502;13.486;2023-02-22T07:04:44;101141.97;;;6.13;100.00
55610;BME280;41486;52.502;13.486;2023-02-22T07:07:12;101150.66;;;6.13;100.00
55610;BME280;41486;52.502;13.486;2023-02-22T07:09:40;101151.28;;;6.19;100.00
55610;BME280;41486;52.502;13.486;2023-02-22T07:12:12;101144.91;;;6.24;100.00
55610;BME280;41486;52.502;13.486;2023-02-22T07:14:40;101144.97;;;6.23;100.00
55610;BME280;41486;52.502;13.486;2023-02-22T07:17:08;101159.09;;;6.19;100.00
55610;BME280;41486;52.502;13.486;2023-02-22T07:19:37;101152.34;;;6.14;100.00
55610;BME280;41486;52.502;13.486;2023-02-22T07:22:04;101155.50;;;6.21;100.00
55610;BME280;41486;52.502;13.486;2023-02-22T07:24:35;101152.88;;;6.21;100.00
55610;BME280;41486;52.502;13.486;2023-02-22T07:27:03;101151.22;;;6.20;100.00
55610;BME280;41486;52.502;13.486;2023-02-22T07:29:32;101152.88;;;6.21;100.00
55610;BME280;41486;52.502;13.486;2023-02-22T07:32:02;101157.28;;;6.21;100.00
55610;BME280;41486;52.502;13.486;2023-02-22T07:34:30;101157.13;;;6.24;100.00
55610;BME280;41486;52.502;13.486;2023-02-22T07:36:58;101158.81;;;6.25;100.00
55610;BME280;41486;52.502;13.486;2023-02-22T07:39:25;101159.19;;;6.35;100.00
55610;BME280;41486;52.502;13.486;2023-02-22T07:41:53;101158.88;;;6.41;100.00
55610;BME280;41486;52.502;13.486;2023-02-22T07:44:22;101156.19;;;6.42;100.00
55610;BME280;41486;52.502;13.486;2023-02-22T07:46:51;101163.97;;;6.44;100.00
55610;BME280;41486;52.502;13.486;2023-02-22T07:49:19;101158.50;;;6.49;100.00
55610;BME280;41486;52.502;13.486;2023-02-22T07:51:47;101156.66;;;6.51;100.00
55610;BME280;41486;52.502;13.486;2023-02-22T07:54:15;101155.50;;;6.56;100.00
55610;BME280;41486;52.502;13.486;2023-02-22T07:56:45;101162.25;;;6.60;100.00
55610;BME280;41486;52.502;13.486;2023-02-22T07:59:13;101156.09;;;6.61;100.00
55610;BME280;41486;52.502;13.486;2023-02-22T08:01:41;101156.84;;;6.63;100.00
55610;BME280;41486;52.502;13.486;2023-02-22T08:04:11;101162.53;;;6.72;100.00
55610;BME280;41486;52.502;13.486;2023-02-22T08:06:39;101161.53;;;6.74;100.00
55610;BME280;41486;52.502;13.486;2023-02-22T08:09:07;101157.16;;;6.75;100.00
55610;BME280;41486;52.502;13.486;2023-02-22T08:11:35;101153.00;;;6.71;100.00
55610;BME280;41486;52.502;13.486;2023-02-22T08:14:02;101164.91;;;6.76;100.00
55610;BME280;41486;52.502;13.486;2023-02-22T08:16:30;101161.59;;;6.90;100.00
55610;BME280;41486;52.502;13.486;2023-02-22T08:18:58;101166.13;;;6.87;100.00
55610;BME280;41486;52.502;13.486;2023-02-22T08:21:28;101163.75;;;6.82;100.00
55610;BME280;41486;52.502;13.486;2023-02-22T08:23:56;101163.09;;;6.94;100.00
55610;BME280;41486;52.502;13.486;2023-02-22T08:26:24;101161.25;;;6.97;100.00
55610;BME280;41486;52.502;13.486;2023-02-22T08:28:52;101160.25;;;6.99;100.00
55610;BME280;41486;52.502;13.486;2023-02-22T08:31:20;101161.38;;;7.11;100.00
55610;BME280;41486;52.502;13.486;2023-02-22T08:33:48;101159.13;;;7.21;100.00
55610;BME280;41486;52.502;13.486;2023-02-22T08:36:16;101159.69;;;7.26;100.00
55610;BME280;41486;52.502;13.486;2023-02-22T08:38:46;101158.09;;;7.23;100.00
55610;BME280;41486;52.502;13.486;2023-02-22T08:41:14;101162.22;;;7.28;100.00
55610;BME280;41486;52.502;13.486;2023-02-22T08:43:42;101161.56;;;7.40;100.00
55610;BME280;41486;52.502;13.486;2023-02-22T08:46:10;101156.59;;;7.35;100.00
55610;BME280;41486;52.502;13.486;2023-02-22T08:48:38;101158.59;;;7.30;100.00
55610;BME280;41486;52.502;13.486;2023-02-22T08:51:15;101153.69;;;7.24;100.00
55610;BME280;41486;52.502;13.486;2023-02-22T08:53:45;101155.00;;;7.33;100.00
55610;BME280;41486;52.502;13.486;2023-02-22T08:56:13;101158.09;;;7.39;100.00
55610;BME280;41486;52.502;13.486;2023-02-22T08:58:41;101156.09;;;7.45;100.00
55610;BME280;41486;52.502;13.486;2023-02-22T09:01:09;101165.38;;;7.34;100.00
55610;BME280;41486;52.502;13.486;2023-02-22T09:03:38;101160.47;;;7.44;100.00
55610;BME280;41486;52.502;13.486;2023-02-22T09:06:06;101164.03;;;7.59;100.00
55610;BME280;41486;52.502;13.486;2023-02-22T09:08:34;101158.03;;;7.41;100.00
55610;BME280;41486;52.502;13.486;2023-02-22T09:11:04;101163.00;;;7.62;100.00
55610;BME280;41486;52.502;13.486;2023-02-22T09:13:32;101157.06;;;7.74;100.00
55610;BME280;41486;52.502;13.486;2023-02-22T09:16:00;101157.41;;;7.84;100.00
55610;BME280;41486;52.502;13.486;2023-02-22T09:18:28;101160.25;;;7.95;100.00
55610;BME280;41486;52.502;13.486;2023-02-22T09:21:10;101169.91;;;7.95;100.00
55610;BME280;41486;52.502;13.486;2023-02-22T09:23:38;101161.31;;;8.07;100.00
55610;BME280;41486;52.502;13.486;2023-02-22T09:26:08;101166.16;;;7.99;100.00
55610;BME280;41486;52.502;13.486;2023-02-22T09:28:37;101165.63;;;8.08;100.00
55610;BME280;41486;52.502;13.486;2023-02-22T09:31:04;101161.06;;;8.12;100.00
55610;BME280;41486;52.502;13.486;2023-02-22T09:33:33;101166.50;;;8.09;100.00
55610;BME280;41486;52.502;13.486;2023-02-22T09:36:00;101168.28;;;8.23;100.00
55610;BME280;41486;52.502;13.486;2023-02-22T09:38:31;101158.97;;;8.33;100.00
55610;BME280;41486;52.502;13.486;2023-02-22T09:41:09;101167.22;;;8.41;100.00
55610;BME280;41486;52.502;13.486;2023-02-22T09:43:44;101156.56;;;8.44;100.00
55610;BME280;41486;52.502;13.486;2023-02-22T09:46:22;101159.09;;;8.46;100.00
55610;BME280;41486;52.502;13.486;2023-02-22T09:48:58;101154.94;;;8.42;100.00
55610;BME280;41486;52.502;13.486;2023-02-22T09:51:33;101153.06;;;8.74;100.00
55610;BME280;41486;52.502;13.486;2023-02-22T09:54:10;101148.91;;;8.56;100.00
55610;BME280;41486;52.502;13.486;2023-02-22T09:56:45;101139.66;;;8.64;100.00
55610;BME280;41486;52.502;13.486;2023-02-22T09:59:17;101144.16;;;8.62;100.00
55610;BME280;41486;52.502;13.486;2023-02-22T10:01:55;101148.53;;;8.47;100.00
55610;BME280;41486;52.502;13.486;2023-02-22T10:04:33;101146.81;;;8.46;100.00
55610;BME280;41486;52.502;13.486;2023-02-22T10:07:14;101142.47;;;8.61;100.00
55610;BME280;41486;52.502;13.486;2023-02-22T10:09:45;101143.94;;;8.51;100.00
55610;BME280;41486;52.502;13.486;2023-02-22T10:12:23;101136.47;;;8.59;100.00
55610;BME280;41486;52.502;13.486;2023-02-22T10:15:12;101138.53;;;8.97;100.00
55610;BME280;41486;52.502;13.486;2023-02-22T10:17:49;101135.72;;;9.42;100.00
55610;BME280;41486;52.502;13.486;2023-02-22T10:20:29;101140.41;;;9.52;100.00
55610;BME280;41486;52.502;13.486;2023-02-22T10:23:10;101139.34;;;9.69;100.00
55610;BME280;41486;52.502;13.486;2023-02-22T10:25:44;101132.63;;;9.50;100.00
55610;BME280;41486;52.502;13.486;2023-02-22T10:28:17;101130.72;;;9.25;99.41
55610;BME280;41486;52.502;13.486;2023-02-22T10:30:49;101131.97;;;9.19;99.73
55610;BME280;41486;52.502;13.486;2023-02-22T10:33:22;101129.88;;;9.24;99.21
55610;BME280;41486;52.502;13.486;2023-02-22T10:35:53;101134.09;;;9.12;99.14
55610;BME280;41486;52.502;13.486;2023-02-22T10:38:24;101124.72;;;9.23;99.33
55610;BME280;41486;52.502;13.486;2023-02-22T10:40:55;101129.41;;;9.18;99.53
55610;BME280;41486;52.502;13.486;2023-02-22T10:43:27;101131.38;;;9.28;97.79
55610;BME280;41486;52.502;13.486;2023-02-22T10:45:58;101126.50;;;9.22;97.99
55610;BME280;41486;52.502;13.486;2023-02-22T10:48:30;101124.88;;;9.34;98.53
55610;BME280;41486;52.502;13.486;2023-02-22T10:51:00;101120.34;;;9.09;96.14
55610;BME280;41486;52.502;13.486;2023-02-22T10:53:29;101116.00;;;9.22;95.23
55610;BME280;41486;52.502;13.486;2023-02-22T10:56:08;101122.53;;;9.29;95.53
55610;BME280;41486;52.502;13.486;2023-02-22T10:58:53;101126.97;;;9.29;94.89
55610;BME280;41486;52.502;13.486;2023-02-22T11:01:26;101123.03;;;9.22;95.40
55610;BME280;41486;52.502;13.486;2023-02-22T11:04:04;101127.94;;;9.13;94.66
55610;BME280;41486;52.502;13.486;2023-02-22T11:06:40;101121.41;;;9.34;94.20
55610;BME280;41486;52.502;13.486;2023-02-22T11:09:11;101121.34;;;9.21;95.34
55610;BME280;41486;52.502;13.486;2023-02-22T11:11:41;101117.56;;;9.39;94.95
55610;BME280;41486;52.502;13.486;2023-02-22T11:14:12;101116.75;;;9.24;94.45
55610;BME280;41486;52.502;13.486;2023-02-22T11:16:45;101120.88;;;9.28;94.71
55610;BME280;41486;52.502;13.486;2023-02-22T11:19:19;101114.59;;;9.31;94.53
55610;BME280;41486;52.502;13.486;2023-02-22T11:21:51;101119.16;;;9.42;94.51
55610;BME280;41486;52.502;13.486;2023-02-22T11:24:22;101113.34;;;9.37;94.59
55610;BME280;41486;52.502;13.486;2023-02-22T11:27:00;101114.66;;;9.29;93.93
55610;BME280;41486;52.502;13.486;2023-02-22T11:29:32;101113.66;;;9.32;94.42
55610;BME280;41486;52.502;13.486;2023-02-22T11:32:03;101112.31;;;9.39;94.28
55610;BME280;41486;52.502;13.486;2023-02-22T11:34:40;101104.25;;;9.28;94.05
55610;BME280;41486;52.502;13.486;2023-02-22T11:37:22;101104.47;;;9.25;94.94
55610;BME280;41486;52.502;13.486;2023-02-22T11:40:14;101099.75;;;9.30;94.79
55610;BME280;41486;52.502;13.486;2023-02-22T11:42:48;101101.34;;;9.32;94.00
55610;BME280;41486;52.502;13.486;2023-02-22T11:45:19;101084.59;;;9.21;94.86
55610;BME280;41486;52.502;13.486;2023-02-22T11:47:52;101086.44;;;9.33;95.57
55610;BME280;41486;52.502;13.486;2023-02-22T11:50:27;101081.47;;;9.28;95.65
55610;BME280;41486;52.502;13.486;2023-02-22T11:53:19;101082.91;;;9.20;95.59
55610;BME280;41486;52.502;13.486;2023-02-22T11:56:08;101082.13;;;9.32;95.84
55610;BME280;41486;52.502;13.486;2023-02-22T11:58:42;101075.84;;;9.35;94.88
55610;BME280;41486;52.502;13.486;2023-02-22T12:01:21;101077.53;;;9.36;93.84
55610;BME280;41486;52.502;13.486;2023-02-22T12:07:26;101073.31;;;9.60;93.35
55610;BME280;41486;52.502;13.486;2023-02-22T12:10:07;101067.91;;;9.49;93.03
55610;BME280;41486;52.502;13.486;2023-02-22T12:13:00;101064.16;;;9.39;93.17
55610;BME280;41486;52.502;13.486;2023-02-22T12:15:37;101062.88;;;9.31;92.00
55610;BME280;41486;52.502;13.486;2023-02-22T12:18:12;101063.38;;;9.51;92.12
55610;BME280;41486;52.502;13.486;2023-02-22T12:20:45;101063.97;;;9.42;91.44
55610;BME280;41486;52.502;13.486;2023-02-22T12:23:20;101065.03;;;9.39;90.97
55610;BME280;41486;52.502;13.486;2023-02-22T12:25:56;101058.31;;;9.48;91.43
55610;BME280;41486;52.502;13.486;2023-02-22T12:28:31;101059.59;;;9.55;91.66
55610;BME280;41486;52.502;13.486;2023-02-22T12:31:13;101076.22;;;9.56;89.28
55610;BME280;41486;52.502;13.486;2023-02-22T12:33:57;101068.13;;;9.59;89.71
55610;BME280;41486;52.502;13.486;2023-02-22T12:36:32;101062.81;;;9.73;88.76
55610;BME280;41486;52.502;13.486;2023-02-22T12:39:22;101063.50;;;9.62;88.45
55610;BME280;41486;52.502;13.486;2023-02-22T12:41:54;101059.88;;;9.65;89.26
55610;BME280;41486;52.502;13.486;2023-02-22T12:44:25;101065.00;;;9.67;87.69
55610;BME280;41486;52.502;13.486;2023-02-22T12:46:56;101056.72;;;9.73;88.14
55610;BME280;41486;52.502;13.486;2023-02-22T12:49:32;101066.09;;;9.77;88.79
55610;BME280;41486;52.502;13.486;2023-02-22T12:52:09;101064.50;;;9.87;87.85
55610;BME280;41486;52.502;13.486;2023-02-22T12:54:58;101061.22;;;9.71;88.48
55610;BME280;41486;52.502;13.486;2023-02-22T12:57:36;101065.69;;;9.83;88.44
55610;BME280;41486;52.502;13.486;2023-02-22T13:00:14;101065.81;;;10.07;87.11
55610;BME280;41486;52.502;13.486;2023-02-22T13:02:52;101063.81;;;9.85;86.87
55610;BME280;41486;52.502;13.486;2023-02-22T13:05:25;101053.34;;;9.71;87.75
55610;BME280;41486;52.502;13.486;2023-02-22T13:08:08;101062.31;;;9.81;87.49
55610;BME280;41486;52.502;13.486;2023-02-22T13:11:04;101055.50;;;9.91;86.43
55610;BME280;41486;52.502;13.486;2023-02-22T13:13:43;101055.28;;;10.07;85.42